sensor_id;sensor_type;location;lat;lon;timestamp;temperature;humidity
40952;DHT22;26682;51.660;19.338;2023-04-25T00:02:04;11.20;99.90
40952;DHT22;26682;51.660;19.338;2023-04-25T00:04:47;11.20;41.40
40952;DHT22;26682;51.660;19.338;2023-04-25T00:07:32;11.10;1.00
40952;DHT22;26682;51.660;19.338;2023-04-25T00:10:14;11.00;25.00
40952;DHT22;26682;51.660;19.338;2023-04-25T00:12:56;11.10;38.50
40952;DHT22;26682;51.660;19.338;2023-04-25T00:15:39;11.10;50.50
40952;DHT22;26682;51.660;19.338;2023-04-25T00:18:52;11.10;25.00
40952;DHT22;26682;51.660;19.338;2023-04-25T00:26:11;11.10;33.70
40952;DHT22;26682;51.660;19.338;2023-04-25T00:28:54;11.10;24.90
40952;DHT22;26682;51.660;19.338;2023-04-25T00:31:36;11.10;17.00
40952;DHT22;26682;51.660;19.338;2023-04-25T00:34:19;11.00;6.70
40952;DHT22;26682;51.660;19.338;2023-04-25T00:37:02;10.90;7.80
40952;DHT22;26682;51.660;19.338;2023-04-25T00:39:45;10.90;1.00
40952;DHT22;26682;51.660;19.338;2023-04-25T00:42:28;10.70;12.70
40952;DHT22;26682;51.660;19.338;2023-04-25T00:45:13;10.70;6.70
40952;DHT22;26682;51.660;19.338;2023-04-25T00:47:57;10.70;29.90
40952;DHT22;26682;51.660;19.338;2023-04-25T00:50:39;10.70;1.00
40952;DHT22;26682;51.660;19.338;2023-04-25T00:53:24;10.60;42.30
40952;DHT22;26682;51.660;19.338;2023-04-25T00:56:07;10.50;99.90
40952;DHT22;26682;51.660;19.338;2023-04-25T00:58:53;10.50;99.90
40952;DHT22;26682;51.660;19.338;2023-04-25T01:01:36;10.50;99.90
40952;DHT22;26682;51.660;19.338;2023-04-25T01:04:21;10.40;99.90
40952;DHT22;26682;51.660;19.338;2023-04-25T01:07:04;10.40;99.90
40952;DHT22;26682;51.660;19.338;2023-04-25T01:09:47;10.40;99.90
40952;DHT22;26682;51.660;19.338;2023-04-25T01:12:30;10.50;99.90
40952;DHT22;26682;51.660;19.338;2023-04-25T01:15:13;10.40;99.90
40952;DHT22;26682;51.660;19.338;2023-04-25T01:17:57;10.40;99.90
40952;DHT22;26682;51.660;19.338;2023-04-25T01:20:41;10.40;99.90
40952;DHT22;26682;51.660;19.338;2023-04-25T01:23:24;10.40;99.90
40952;DHT22;26682;51.660;19.338;2023-04-25T01:26:11;10.40;99.90
40952;DHT22;26682;51.660;19.338;2023-04-25T01:28:54;10.40;99.90
40952;DHT22;26682;51.660;19.338;2023-04-25T01:31:38;10.40;99.90
40952;DHT22;26682;51.660;19.338;2023-04-25T01:34:21;10.40;99.90
40952;DHT22;26682;51.660;19.338;2023-04-25T01:37:04;10.30;99.90
40952;DHT22;26682;51.660;19.338;2023-04-25T01:39:47;10.30;99.90
40952;DHT22;26682;51.660;19.338;2023-04-25T01:42:32;10.40;99.90
40952;DHT22;26682;51.660;19.338;2023-04-25T01:45:14;10.30;99.90
40952;DHT22;26682;51.660;19.338;2023-04-25T01:47:57;10.30;99.90
40952;DHT22;26682;51.660;19.338;2023-04-25T01:50:42;10.30;99.90
40952;DHT22;26682;51.660;19.338;2023-04-25T01:53:26;10.30;99.90
40952;DHT22;26682;51.660;19.338;2023-04-25T01:56:09;10.20;99.90
40952;DHT22;26682;51.660;19.338;2023-04-25T01:58:53;10.20;99.90
40952;DHT22;26682;51.660;19.338;2023-04-25T02:01:51;10.30;99.90
40952;DHT22;26682;51.660;19.338;2023-04-25T02:04:42;10.30;99.90
40952;DHT22;26682;51.660;19.338;2023-04-25T02:07:26;10.30;99.90
40952;DHT22;26682;51.660;19.338;2023-04-25T02:10:09;10.30;99.90
40952;DHT22;26682;51.660;19.338;2023-04-25T02:13:04;10.30;99.90
40952;DHT22;26682;51.660;19.338;2023-04-25T02:16:04;10.30;99.90
40952;DHT22;26682;51.660;19.338;2023-04-25T02:18:46;10.20;99.90
40952;DHT22;26682;51.660;19.338;2023-04-25T02:21:29;10.20;99.90
40952;DHT22;26682;51.660;19.338;2023-04-25T02:24:12;10.10;99.90
40952;DHT22;26682;51.660;19.338;2023-04-25T02:26:57;10.20;99.90
40952;DHT22;26682;51.660;19.338;2023-04-25T02:29:40;10.10;99.90
40952;DHT22;26682;51.660;19.338;2023-04-25T02:32:25;10.00;99.90
40952;DHT22;26682;51.660;19.338;2023-04-25T02:35:09;10.00;99.90
40952;DHT22;26682;51.660;19.338;2023-04-25T02:37:52;10.00;99.90
40952;DHT22;26682;51.660;19.338;2023-04-25T02:40:34;9.90;99.90
40952;DHT22;26682;51.660;19.338;2023-04-25T02:43:17;9.90;99.90
40952;DHT22;26682;51.660;19.338;2023-04-25T02:45:59;9.90;99.90
40952;DHT22;26682;51.660;19.338;2023-04-25T02:48:41;9.80;99.90
40952;DHT22;26682;51.660;19.338;2023-04-25T02:51:24;9.80;99.90
40952;DHT22;26682;51.660;19.338;2023-04-25T02:54:07;9.70;99.90
40952;DHT22;26682;51.660;19.338;2023-04-25T02:56:54;9.70;99.90
40952;DHT22;26682;51.660;19.338;2023-04-25T02:59:42;9.50;99.90
40952;DHT22;26682;51.660;19.338;2023-04-25T03:02:24;9.30;99.90
40952;DHT22;26682;51.660;19.338;2023-04-25T03:05:07;9.40;99.90
40952;DHT22;26682;51.660;19.338;2023-04-25T03:07:50;9.40;99.90
40952;DHT22;26682;51.660;19.338;2023-04-25T03:10:32;9.30;99.90
40952;DHT22;26682;51.660;19.338;2023-04-25T03:13:20;9.20;99.90
40952;DHT22;26682;51.660;19.338;2023-04-25T03:16:03;9.10;99.90
40952;DHT22;26682;51.660;19.338;2023-04-25T03:18:45;9.00;99.90
40952;DHT22;26682;51.660;19.338;2023-04-25T03:21:29;9.00;99.90
40952;DHT22;26682;51.660;19.338;2023-04-25T03:24:14;9.00;99.90
40952;DHT22;26682;51.660;19.338;2023-04-25T03:26:57;8.90;99.90
40952;DHT22;26682;51.660;19.338;2023-04-25T03:29:40;8.90;99.90
40952;DHT22;26682;51.660;19.338;2023-04-25T03:32:24;8.90;99.90
40952;DHT22;26682;51.660;19.338;2023-04-25T03:35:07;8.90;99.90
40952;DHT22;26682;51.660;19.338;2023-04-25T03:37:50;8.80;99.90
40952;DHT22;26682;51.660;19.338;2023-04-25T03:40:38;8.80;99.90
40952;DHT22;26682;51.660;19.338;2023-04-25T03:43:31;8.80;99.90
40952;DHT22;26682;51.660;19.338;2023-04-25T03:46:19;8.90;99.90
40952;DHT22;26682;51.660;19.338;2023-04-25T03:49:03;8.80;99.90
40952;DHT22;26682;51.660;19.338;2023-04-25T03:52:10;8.70;99.90
40952;DHT22;26682;51.660;19.338;2023-04-25T03:54:55;8.70;99.90
40952;DHT22;26682;51.660;19.338;2023-04-25T03:57:39;8.70;99.90
40952;DHT22;26682;51.660;19.338;2023-04-25T04:00:22;8.70;99.90
40952;DHT22;26682;51.660;19.338;2023-04-25T04:03:07;8.70;99.90
40952;DHT22;26682;51.660;19.338;2023-04-25T04:05:50;8.70;99.90
40952;DHT22;26682;51.660;19.338;2023-04-25T04:08:33;8.80;99.90
40952;DHT22;26682;51.660;19.338;2023-04-25T04:11:17;8.90;99.90
40952;DHT22;26682;51.660;19.338;2023-04-25T04:14:00;9.00;99.90
40952;DHT22;26682;51.660;19.338;2023-04-25T04:16:44;9.00;99.90
40952;DHT22;26682;51.660;19.338;2023-04-25T04:19:27;8.90;99.90
40952;DHT22;26682;51.660;19.338;2023-04-25T04:22:20;8.80;99.90
40952;DHT22;26682;51.660;19.338;2023-04-25T04:25:04;8.80;99.90
40952;DHT22;26682;51.660;19.338;2023-04-25T04:28:07;8.70;99.90
40952;DHT22;26682;51.660;19.338;2023-04-25T04:30:59;8.70;99.90
40952;DHT22;26682;51.660;19.338;2023-04-25T04:33:44;8.80;99.90
40952;DHT22;26682;51.660;19.338;2023-04-25T04:36:26;8.80;99.90
40952;DHT22;26682;51.660;19.338;2023-04-25T04:39:10;8.80;99.90
40952;DHT22;26682;51.660;19.338;2023-04-25T04:42:03;8.80;94.80
40952;DHT22;26682;51.660;19.338;2023-04-25T04:44:58;8.70;87.30
40952;DHT22;26682;51.660;19.338;2023-04-25T04:47:59;8.80;91.60
40952;DHT22;26682;51.660;19.338;2023-04-25T04:51:12;8.80;1.00
40952;DHT22;26682;51.660;19.338;2023-04-25T04:54:17;8.90;1.00
40952;DHT22;26682;51.660;19.338;2023-04-25T04:57:28;8.80;1.00
40952;DHT22;26682;51.660;19.338;2023-04-25T05:00:31;8.90;99.90
40952;DHT22;26682;51.660;19.338;2023-04-25T05:03:35;9.00;99.90
40952;DHT22;26682;51.660;19.338;2023-04-25T05:06:42;9.10;99.90
40952;DHT22;26682;51.660;19.338;2023-04-25T05:10:03;9.20;99.90
40952;DHT22;26682;51.660;19.338;2023-04-25T05:12:49;9.30;99.90
40952;DHT22;26682;51.660;19.338;2023-04-25T05:15:58;9.30;99.90
40952;DHT22;26682;51.660;19.338;2023-04-25T05:19:01;9.20;57.90
40952;DHT22;26682;51.660;19.338;2023-04-25T05:22:10;9.20;86.40
40952;DHT22;26682;51.660;19.338;2023-04-25T05:25:10;9.20;99.90
40952;DHT22;26682;51.660;19.338;2023-04-25T05:28:13;9.30;1.00
40952;DHT22;26682;51.660;19.338;2023-04-25T05:31:06;9.40;99.90
40952;DHT22;26682;51.660;19.338;2023-04-25T05:34:00;9.30;99.90
40952;DHT22;26682;51.660;19.338;2023-04-25T05:36:56;9.30;74.40
40952;DHT22;26682;51.660;19.338;2023-04-25T05:39:39;9.30;1.00
40952;DHT22;26682;51.660;19.338;2023-04-25T05:42:39;9.30;16.70
40952;DHT22;26682;51.660;19.338;2023-04-25T05:45:39;9.30;1.00
40952;DHT22;26682;51.660;19.338;2023-04-25T05:48:40;9.30;1.00
40952;DHT22;26682;51.660;19.338;2023-04-25T05:51:47;9.40;49.80
40952;DHT22;26682;51.660;19.338;2023-04-25T05:54:49;9.60;2.30
40952;DHT22;26682;51.660;19.338;2023-04-25T05:57:32;9.50;99.90
40952;DHT22;26682;51.660;19.338;2023-04-25T06:00:15;9.40;99.90
40952;DHT22;26682;51.660;19.338;2023-04-25T06:03:03;9.30;1.00
40952;DHT22;26682;51.660;19.338;2023-04-25T06:05:46;9.30;21.40
40952;DHT22;26682;51.660;19.338;2023-04-25T06:08:30;9.40;1.00
40952;DHT22;26682;51.660;19.338;2023-04-25T06:11:13;9.50;1.00
40952;DHT22;26682;51.660;19.338;2023-04-25T06:13:56;9.40;1.00
40952;DHT22;26682;51.660;19.338;2023-04-25T06:16:39;9.50;1.00
40952;DHT22;26682;51.660;19.338;2023-04-25T06:19:22;9.70;1.00
40952;DHT22;26682;51.660;19.338;2023-04-25T06:22:05;9.80;99.90
40952;DHT22;26682;51.660;19.338;2023-04-25T06:24:51;9.90;99.90
40952;DHT22;26682;51.660;19.338;2023-04-25T06:27:34;9.80;99.90
40952;DHT22;26682;51.660;19.338;2023-04-25T06:30:19;9.80;99.90
40952;DHT22;26682;51.660;19.338;2023-04-25T06:33:07;9.80;80.60
40952;DHT22;26682;51.660;19.338;2023-04-25T06:35:52;9.80;79.70
40952;DHT22;26682;51.660;19.338;2023-04-25T06:38:40;9.90;99.90
40952;DHT22;26682;51.660;19.338;2023-04-25T06:41:22;9.80;99.90
40952;DHT22;26682;51.660;19.338;2023-04-25T06:44:08;9.70;99.90
40952;DHT22;26682;51.660;19.338;2023-04-25T06:46:55;9.70;99.90
40952;DHT22;26682;51.660;19.338;2023-04-25T06:49:38;9.60;99.90
40952;DHT22;26682;51.660;19.338;2023-04-25T06:52:21;9.60;99.90
40952;DHT22;26682;51.660;19.338;2023-04-25T06:55:05;9.70;99.90
40952;DHT22;26682;51.660;19.338;2023-04-25T06:58:08;9.60;99.90
40952;DHT22;26682;51.660;19.338;2023-04-25T07:01:17;9.70;99.90
40952;DHT22;26682;51.660;19.338;2023-04-25T07:04:00;9.80;1.00
40952;DHT22;26682;51.660;19.338;2023-04-25T07:06:46;9.80;99.90
40952;DHT22;26682;51.660;19.338;2023-04-25T07:09:33;9.90;75.40
40952;DHT22;26682;51.660;19.338;2023-04-25T07:12:16;10.10;99.90
40952;DHT22;26682;51.660;19.338;2023-04-25T07:14:59;10.20;77.50
40952;DHT22;26682;51.660;19.338;2023-04-25T07:17:41;10.10;1.00
40952;DHT22;26682;51.660;19.338;2023-04-25T07:20:25;10.30;1.00
40952;DHT22;26682;51.660;19.338;2023-04-25T07:23:11;10.40;99.90
40952;DHT22;26682;51.660;19.338;2023-04-25T07:25:54;10.50;99.90
40952;DHT22;26682;51.660;19.338;2023-04-25T07:28:40;10.50;12.30
40952;DHT22;26682;51.660;19.338;2023-04-25T07:31:23;10.80;84.30
40952;DHT22;26682;51.660;19.338;2023-04-25T07:34:06;10.70;1.00
40952;DHT22;26682;51.660;19.338;2023-04-25T07:36:50;10.70;1.00
40952;DHT22;26682;51.660;19.338;2023-04-25T07:39:33;10.70;99.90
40952;DHT22;26682;51.660;19.338;2023-04-25T07:42:16;10.80;99.90
40952;DHT22;26682;51.660;19.338;2023-04-25T07:45:00;11.10;1.00
40952;DHT22;26682;51.660;19.338;2023-04-25T07:47:43;11.10;1.00
40952;DHT22;26682;51.660;19.338;2023-04-25T07:50:27;11.20;99.90
40952;DHT22;26682;51.660;19.338;2023-04-25T07:53:10;10.90;99.90
40952;DHT22;26682;51.660;19.338;2023-04-25T07:56:01;10.80;1.00
40952;DHT22;26682;51.660;19.338;2023-04-25T07:58:47;10.80;99.90
40952;DHT22;26682;51.660;19.338;2023-04-25T08:01:56;10.90;99.90
40952;DHT22;26682;51.660;19.338;2023-04-25T08:04:40;10.80;1.00
40952;DHT22;26682;51.660;19.338;2023-04-25T08:07:27;10.80;99.90
40952;DHT22;26682;51.660;19.338;2023-04-25T08:10:15;11.00;1.00
40952;DHT22;26682;51.660;19.338;2023-04-25T08:12:59;11.20;1.00
40952;DHT22;26682;51.660;19.338;2023-04-25T08:15:42;11.30;1.00
40952;DHT22;26682;51.660;19.338;2023-04-25T08:18:25;11.10;8.80
40952;DHT22;26682;51.660;19.338;2023-04-25T08:21:07;11.10;99.90
40952;DHT22;26682;51.660;19.338;2023-04-25T08:23:52;11.10;1.00
40952;DHT22;26682;51.660;19.338;2023-04-25T08:26:47;10.80;99.90
40952;DHT22;26682;51.660;19.338;2023-04-25T08:29:34;10.80;1.00
40952;DHT22;26682;51.660;19.338;2023-04-25T08:32:18;10.70;1.00
40952;DHT22;26682;51.660;19.338;2023-04-25T08:35:15;10.80;20.90
40952;DHT22;26682;51.660;19.338;2023-04-25T08:37:59;11.00;26.00
40952;DHT22;26682;51.660;19.338;2023-04-25T08:40:44;11.00;31.50
40952;DHT22;26682;51.660;19.338;2023-04-25T08:43:30;11.00;37.10
40952;DHT22;26682;51.660;19.338;2023-04-25T08:46:17;10.90;35.30
40952;DHT22;26682;51.660;19.338;2023-04-25T08:49:19;11.10;26.40
40952;DHT22;26682;51.660;19.338;2023-04-25T08:52:04;11.20;21.90
40952;DHT22;26682;51.660;19.338;2023-04-25T08:54:51;11.10;31.60
40952;DHT22;26682;51.660;19.338;2023-04-25T08:57:35;11.00;23.00
40952;DHT22;26682;51.660;19.338;2023-04-25T09:00:19;11.20;36.30
40952;DHT22;26682;51.660;19.338;2023-04-25T09:03:02;11.20;34.80
40952;DHT22;26682;51.660;19.338;2023-04-25T09:05:47;11.50;34.30
40952;DHT22;26682;51.660;19.338;2023-04-25T09:08:33;11.50;65.00
40952;DHT22;26682;51.660;19.338;2023-04-25T09:11:15;11.40;64.80
40952;DHT22;26682;51.660;19.338;2023-04-25T09:14:18;11.40;38.80
40952;DHT22;26682;51.660;19.338;2023-04-25T09:17:23;11.60;25.20
40952;DHT22;26682;51.660;19.338;2023-04-25T09:20:14;11.40;36.00
40952;DHT22;26682;51.660;19.338;2023-04-25T09:23:04;11.50;27.60
40952;DHT22;26682;51.660;19.338;2023-04-25T09:25:52;11.40;39.30
40952;DHT22;26682;51.660;19.338;2023-04-25T09:28:36;11.50;40.40
40952;DHT22;26682;51.660;19.338;2023-04-25T09:31:23;11.40;46.80
40952;DHT22;26682;51.660;19.338;2023-04-25T09:34:10;11.30;47.80
40952;DHT22;26682;51.660;19.338;2023-04-25T09:37:06;11.60;47.60
40952;DHT22;26682;51.660;19.338;2023-04-25T09:40:07;11.80;72.00
40952;DHT22;26682;51.660;19.338;2023-04-25T09:43:26;11.70;71.40
40952;DHT22;26682;51.660;19.338;2023-04-25T09:46:11;11.60;79.60
40952;DHT22;26682;51.660;19.338;2023-04-25T09:48:58;11.90;76.40
40952;DHT22;26682;51.660;19.338;2023-04-25T09:51:58;11.80;74.60
40952;DHT22;26682;51.660;19.338;2023-04-25T09:54:57;11.80;96.70
40952;DHT22;26682;51.660;19.338;2023-04-25T09:57:48;11.80;99.90
40952;DHT22;26682;51.660;19.338;2023-04-25T10:00:33;12.20;99.90
40952;DHT22;26682;51.660;19.338;2023-04-25T10:03:31;12.40;99.90
40952;DHT22;26682;51.660;19.338;2023-04-25T10:06:33;12.40;99.90
40952;DHT22;26682;51.660;19.338;2023-04-25T10:09:23;12.30;99.90
40952;DHT22;26682;51.660;19.338;2023-04-25T10:12:08;12.30;99.90
40952;DHT22;26682;51.660;19.338;2023-04-25T10:14:50;12.10;99.90
40952;DHT22;26682;51.660;19.338;2023-04-25T10:17:35;11.90;99.90
40952;DHT22;26682;51.660;19.338;2023-04-25T10:20:17;11.80;99.90
40952;DHT22;26682;51.660;19.338;2023-04-25T10:23:11;11.70;99.90
40952;DHT22;26682;51.660;19.338;2023-04-25T10:25:55;11.60;99.90
40952;DHT22;26682;51.660;19.338;2023-04-25T10:29:07;11.60;99.90
40952;DHT22;26682;51.660;19.338;2023-04-25T10:31:51;11.50;99.90
40952;DHT22;26682;51.660;19.338;2023-04-25T10:34:44;11.60;99.90
40952;DHT22;26682;51.660;19.338;2023-04-25T10:37:30;11.40;99.90
40952;DHT22;26682;51.660;19.338;2023-04-25T10:40:13;11.30;99.90
40952;DHT22;26682;51.660;19.338;2023-04-25T10:49:08;11.20;99.90
40952;DHT22;26682;51.660;19.338;2023-04-25T10:51:58;11.30;99.90
40952;DHT22;26682;51.660;19.338;2023-04-25T10:54:54;11.50;99.90
40952;DHT22;26682;51.660;19.338;2023-04-25T10:57:43;11.70;99.90
40952;DHT22;26682;51.660;19.338;2023-04-25T11:00:30;11.90;99.90
40952;DHT22;26682;51.660;19.338;2023-04-25T11:03:29;12.00;99.90
40952;DHT22;26682;51.660;19.338;2023-04-25T11:06:29;12.20;99.90
40952;DHT22;26682;51.660;19.338;2023-04-25T11:09:14;12.40;99.90
40952;DHT22;26682;51.660;19.338;2023-04-25T11:11:57;12.40;99.90
40952;DHT22;26682;51.660;19.338;2023-04-25T11:14:40;12.40;99.90
40952;DHT22;26682;51.660;19.338;2023-04-25T11:17:25;12.40;99.90
40952;DHT22;26682;51.660;19.338;2023-04-25T11:20:08;12.40;99.90
40952;DHT22;26682;51.660;19.338;2023-04-25T11:22:53;12.40;99.90
40952;DHT22;26682;51.660;19.338;2023-04-25T11:25:36;12.50;99.90
40952;DHT22;26682;51.660;19.338;2023-04-25T11:28:23;12.30;99.90
40952;DHT22;26682;51.660;19.338;2023-04-25T11:31:07;12.20;99.90
40952;DHT22;26682;51.660;19.338;2023-04-25T11:33:53;12.30;99.90
40952;DHT22;26682;51.660;19.338;2023-04-25T11:36:38;12.40;99.90
40952;DHT22;26682;51.660;19.338;2023-04-25T11:39:21;12.50;99.90
40952;DHT22;26682;51.660;19.338;2023-04-25T11:42:04;12.40;99.90
40952;DHT22;26682;51.660;19.338;2023-04-25T11:44:50;12.30;99.90
40952;DHT22;26682;51.660;19.338;2023-04-25T11:47:33;12.30;99.90
40952;DHT22;26682;51.660;19.338;2023-04-25T11:50:16;12.20;99.90
40952;DHT22;26682;51.660;19.338;2023-04-25T11:52:58;12.40;99.90
40952;DHT22;26682;51.660;19.338;2023-04-25T11:55:41;12.30;99.90
40952;DHT22;26682;51.660;19.338;2023-04-25T11:58:23;12.30;99.90
40952;DHT22;26682;51.660;19.338;2023-04-25T12:01:06;12.30;99.90
40952;DHT22;26682;51.660;19.338;2023-04-25T12:03:48;12.40;99.90
40952;DHT22;26682;51.660;19.338;2023-04-25T12:06:31;12.30;99.90
40952;DHT22;26682;51.660;19.338;2023-04-25T12:09:16;12.50;99.90
40952;DHT22;26682;51.660;19.338;2023-04-25T12:12:01;12.40;99.90
40952;DHT22;26682;51.660;19.338;2023-04-25T12:14:48;12.20;99.90
40952;DHT22;26682;51.660;19.338;2023-04-25T12:17:30;12.10;99.90
40952;DHT22;26682;51.660;19.338;2023-04-25T12:20:25;12.00;99.90
40952;DHT22;26682;51.660;19.338;2023-04-25T12:23:07;12.00;99.90
40952;DHT22;26682;51.660;19.338;2023-04-25T12:25:50;12.00;99.90
40952;DHT22;26682;51.660;19.338;2023-04-25T12:28:33;12.00;99.90
40952;DHT22;26682;51.660;19.338;2023-04-25T12:31:15;12.20;99.90
40952;DHT22;26682;51.660;19.338;2023-04-25T12:33:58;12.30;99.90
40952;DHT22;26682;51.660;19.338;2023-04-25T12:36:41;12.30;99.90
40952;DHT22;26682;51.660;19.338;2023-04-25T12:39:24;12.30;99.90
40952;DHT22;26682;51.660;19.338;2023-04-25T12:42:07;12.30;99.90
40952;DHT22;26682;51.660;19.338;2023-04-25T12:44:50;12.40;99.30
40952;DHT22;26682;51.660;19.338;2023-04-25T12:47:33;12.20;99.60
40952;DHT22;26682;51.660;19.338;2023-04-25T12:50:17;12.00;99.90
40952;DHT22;26682;51.660;19.338;2023-04-25T12:52:59;11.90;99.70
40952;DHT22;26682;51.660;19.338;2023-04-25T12:55:42;11.90;99.90
40952;DHT22;26682;51.660;19.338;2023-04-25T12:58:25;11.90;99.90
40952;DHT22;26682;51.660;19.338;2023-04-25T13:01:07;11.90;99.90
40952;DHT22;26682;51.660;19.338;2023-04-25T13:03:50;11.80;99.90
40952;DHT22;26682;51.660;19.338;2023-04-25T13:06:33;11.80;99.90
40952;DHT22;26682;51.660;19.338;2023-04-25T13:09:16;11.80;99.90
40952;DHT22;26682;51.660;19.338;2023-04-25T13:11:58;11.80;99.90
40952;DHT22;26682;51.660;19.338;2023-04-25T13:14:41;11.70;99.90
40952;DHT22;26682;51.660;19.338;2023-04-25T13:17:24;11.70;99.90
40952;DHT22;26682;51.660;19.338;2023-04-25T13:20:09;11.70;99.90
40952;DHT22;26682;51.660;19.338;2023-04-25T13:22:51;11.90;99.90
40952;DHT22;26682;51.660;19.338;2023-04-25T13:25:34;12.10;99.90
40952;DHT22;26682;51.660;19.338;2023-04-25T13:28:17;12.10;99.70
40952;DHT22;26682;51.660;19.338;2023-04-25T13:30:59;11.90;99.80
40952;DHT22;26682;51.660;19.338;2023-04-25T13:33:42;11.90;99.90
40952;DHT22;26682;51.660;19.338;2023-04-25T13:36:25;12.10;99.90
40952;DHT22;26682;51.660;19.338;2023-04-25T13:39:08;12.10;99.50
40952;DHT22;26682;51.660;19.338;2023-04-25T13:41:50;11.80;99.00
40952;DHT22;26682;51.660;19.338;2023-04-25T13:44:33;11.70;99.40
40952;DHT22;26682;51.660;19.338;2023-04-25T13:47:17;11.70;99.10
40952;DHT22;26682;51.660;19.338;2023-04-25T13:50:00;11.60;99.40
40952;DHT22;26682;51.660;19.338;2023-04-25T13:52:45;11.60;99.60
40952;DHT22;26682;51.660;19.338;2023-04-25T13:55:28;11.60;99.80
40952;DHT22;26682;51.660;19.338;2023-04-25T13:58:11;11.50;99.90
40952;DHT22;26682;51.660;19.338;2023-04-25T14:00:53;11.40;99.90
40952;DHT22;26682;51.660;19.338;2023-04-25T14:03:36;11.30;99.90
40952;DHT22;26682;51.660;19.338;2023-04-25T14:06:19;11.30;99.90
40952;DHT22;26682;51.660;19.338;2023-04-25T14:09:05;11.40;99.90
40952;DHT22;26682;51.660;19.338;2023-04-25T14:11:49;11.30;99.90
40952;DHT22;26682;51.660;19.338;2023-04-25T14:14:31;11.30;99.90
40952;DHT22;26682;51.660;19.338;2023-04-25T14:17:14;11.20;99.90
40952;DHT22;26682;51.660;19.338;2023-04-25T14:19:57;11.20;99.90
40952;DHT22;26682;51.660;19.338;2023-04-25T14:22:39;11.10;99.90
40952;DHT22;26682;51.660;19.338;2023-04-25T14:25:25;11.20;99.90
40952;DHT22;26682;51.660;19.338;2023-04-25T14:28:07;11.30;99.90
40952;DHT22;26682;51.660;19.338;2023-04-25T14:30:50;11.20;99.90
40952;DHT22;26682;51.660;19.338;2023-04-25T14:33:33;11.30;99.90
40952;DHT22;26682;51.660;19.338;2023-04-25T14:36:16;11.40;99.90
40952;DHT22;26682;51.660;19.338;2023-04-25T14:38:59;11.20;99.90
40952;DHT22;26682;51.660;19.338;2023-04-25T14:41:45;11.20;99.90
40952;DHT22;26682;51.660;19.338;2023-04-25T14:44:30;11.20;99.90
40952;DHT22;26682;51.660;19.338;2023-04-25T14:47:25;11.10;99.90
40952;DHT22;26682;51.660;19.338;2023-04-25T14:50:08;11.20;99.90
40952;DHT22;26682;51.660;19.338;2023-04-25T14:52:53;11.30;99.90
40952;DHT22;26682;51.660;19.338;2023-04-25T14:55:41;11.30;99.90
40952;DHT22;26682;51.660;19.338;2023-04-25T14:58:24;11.20;99.90
40952;DHT22;26682;51.660;19.338;2023-04-25T15:01:07;11.30;99.90
40952;DHT22;26682;51.660;19.338;2023-04-25T15:03:50;11.30;99.90
40952;DHT22;26682;51.660;19.338;2023-04-25T15:06:34;11.20;99.90
40952;DHT22;26682;51.660;19.338;2023-04-25T15:09:17;11.30;99.90
40952;DHT22;26682;51.660;19.338;2023-04-25T15:12:00;11.30;99.90
40952;DHT22;26682;51.660;19.338;2023-04-25T15:14:43;11.10;99.90
40952;DHT22;26682;51.660;19.338;2023-04-25T15:17:26;11.10;99.90
40952;DHT22;26682;51.660;19.338;2023-04-25T15:20:13;11.10;99.90
40952;DHT22;26682;51.660;19.338;2023-04-25T15:22:56;10.90;99.90
40952;DHT22;26682;51.660;19.338;2023-04-25T15:25:39;10.90;99.90
40952;DHT22;26682;51.660;19.338;2023-04-25T15:28:22;10.90;99.90
40952;DHT22;26682;51.660;19.338;2023-04-25T15:31:04;10.90;99.90
40952;DHT22;26682;51.660;19.338;2023-04-25T15:33:47;10.90;99.90
40952;DHT22;26682;51.660;19.338;2023-04-25T15:36:31;10.90;99.90
40952;DHT22;26682;51.660;19.338;2023-04-25T15:39:13;10.90;99.90
40952;DHT22;26682;51.660;19.338;2023-04-25T15:41:56;10.80;99.90
40952;DHT22;26682;51.660;19.338;2023-04-25T15:44:40;10.90;99.90
40952;DHT22;26682;51.660;19.338;2023-04-25T15:47:23;10.90;99.90
40952;DHT22;26682;51.660;19.338;2023-04-25T15:50:07;10.90;99.90
40952;DHT22;26682;51.660;19.338;2023-04-25T15:52:50;10.90;99.90
40952;DHT22;26682;51.660;19.338;2023-04-25T15:55:33;11.00;99.90
40952;DHT22;26682;51.660;19.338;2023-04-25T15:58:16;11.00;99.90
40952;DHT22;26682;51.660;19.338;2023-04-25T16:00:59;11.00;99.90
40952;DHT22;26682;51.660;19.338;2023-04-25T16:03:43;10.90;99.90
40952;DHT22;26682;51.660;19.338;2023-04-25T16:06:26;10.90;99.90
40952;DHT22;26682;51.660;19.338;2023-04-25T16:09:08;10.90;99.90
40952;DHT22;26682;51.660;19.338;2023-04-25T16:11:51;10.90;99.90
40952;DHT22;26682;51.660;19.338;2023-04-25T16:14:34;10.90;99.90
40952;DHT22;26682;51.660;19.338;2023-04-25T16:17:17;10.80;99.90
40952;DHT22;26682;51.660;19.338;2023-04-25T16:20:00;10.70;99.90
40952;DHT22;26682;51.660;19.338;2023-04-25T16:22:51;10.60;99.90
40952;DHT22;26682;51.660;19.338;2023-04-25T16:25:34;10.70;99.90
40952;DHT22;26682;51.660;19.338;2023-04-25T16:28:16;10.60;99.90
40952;DHT22;26682;51.660;19.338;2023-04-25T16:30:59;10.60;99.90
40952;DHT22;26682;51.660;19.338;2023-04-25T16:33:41;10.50;99.90
40952;DHT22;26682;51.660;19.338;2023-04-25T16:36:24;10.50;99.90
40952;DHT22;26682;51.660;19.338;2023-04-25T16:39:06;10.60;99.90
40952;DHT22;26682;51.660;19.338;2023-04-25T16:41:50;10.50;99.90
40952;DHT22;26682;51.660;19.338;2023-04-25T16:44:33;10.50;99.90
40952;DHT22;26682;51.660;19.338;2023-04-25T16:47:16;10.50;99.90
40952;DHT22;26682;51.660;19.338;2023-04-25T16:50:01;10.50;99.90
40952;DHT22;26682;51.660;19.338;2023-04-25T16:52:44;10.50;99.90
40952;DHT22;26682;51.660;19.338;2023-04-25T16:55:26;10.40;99.90
40952;DHT22;26682;51.660;19.338;2023-04-25T16:58:09;10.40;99.90
40952;DHT22;26682;51.660;19.338;2023-04-25T17:00:55;10.40;99.90
40952;DHT22;26682;51.660;19.338;2023-04-25T17:03:39;10.40;99.90
40952;DHT22;26682;51.660;19.338;2023-04-25T17:06:21;10.40;99.90
40952;DHT22;26682;51.660;19.338;2023-04-25T17:09:04;10.40;99.90
40952;DHT22;26682;51.660;19.338;2023-04-25T17:11:47;10.40;99.90
40952;DHT22;26682;51.660;19.338;2023-04-25T17:14:30;10.40;99.90
40952;DHT22;26682;51.660;19.338;2023-04-25T17:17:14;10.40;99.90
40952;DHT22;26682;51.660;19.338;2023-04-25T17:19:57;10.30;99.90
40952;DHT22;26682;51.660;19.338;2023-04-25T17:22:40;10.30;99.90
40952;DHT22;26682;51.660;19.338;2023-04-25T17:25:23;10.30;99.90
40952;DHT22;26682;51.660;19.338;2023-04-25T17:28:05;10.20;99.90
40952;DHT22;26682;51.660;19.338;2023-04-25T17:30:48;10.20;99.90